Time;durP1;ratioP1;P1;durP2;ratioP2;P2;SDS_P1;SDS_P2;PMS_P1;PMS_P2;Temp;Humidity;BMP_temperature;BMP_pressure;BME280_temperature;BME280_humidity;BME280_pressure;Samples;Min_cycle;Max_cycle;Signal;HPM_P1;HPM_P2
2023/05/06 00:00:13;;;;;;;9.82;7.50;;;;;;;;;;5050445;28;20029;-69
2023/05/06 00:02:41;;;;;;;11.40;7.00;;;;;;;;;;5050957;28;20025;-69
2023/05/06 00:05:07;;;;;;;12.50;7.68;;;;;;;;;;5050897;28;20501;-68
2023/05/06 00:07:33;;;;;;;11.13;7.18;;;;;;;;;;5050564;28;20040;-68
2023/05/06 00:09:58;;;;;;;12.82;7.80;;;;;;;;;;5051015;28;20037;-69
2023/05/06 00:12:24;;;;;;;11.02;7.25;;;;;;;;;;5051250;28;20087;-68
2023/05/06 00:14:50;;;;;;;14.50;9.48;;;;;;;;;;5050852;28;20037;-68
2023/05/06 00:17:16;;;;;;;11.20;6.72;;;;;;;;;;5050322;28;20040;-69
2023/05/06 00:19:43;;;;;;;15.07;7.30;;;;;;;;;;5051284;28;20037;-69
2023/05/06 00:22:09;;;;;;;13.85;8.90;;;;;;;;;;5051063;28;20108;-69
2023/05/06 00:24:35;;;;;;;16.55;9.02;;;;;;;;;;5050999;28;20068;-68
2023/05/06 00:27:00;;;;;;;14.43;9.30;;;;;;;;;;5050763;28;20442;-67
2023/05/06 00:29:26;;;;;;;12.60;8.50;;;;;;;;;;5051771;28;20029;-68
2023/05/06 00:31:52;;;;;;;11.95;8.02;;;;;;;;;;5050890;28;20051;-68
2023/05/06 00:34:17;;;;;;;13.52;8.65;;;;;;;;;;5054793;28;20037;-68
2023/05/06 00:36:43;;;;;;;11.52;8.23;;;;;;;;;;5041665;28;20021;-68
2023/05/06 00:39:09;;;;;;;11.00;8.25;;;;;;;;;;5035049;28;20088;-68
2023/05/06 00:41:34;;;;;;;15.98;9.23;;;;;;;;;;5045269;28;20055;-68
2023/05/06 00:44:00;;;;;;;10.82;8.07;;;;;;;;;;5045203;28;20033;-66
2023/05/06 00:46:26;;;;;;;11.90;8.13;;;;;;;;;;5055228;28;20436;-68
2023/05/06 00:48:53;;;;;;;12.38;8.52;;;;;;;;;;5053103;28;20029;-68
2023/05/06 00:51:19;;;;;;;13.40;8.30;;;;;;;;;;5054497;28;20029;-69
2023/05/06 00:53:48;;;;;;;16.48;8.80;;;;;;;;;;5053333;28;20056;-68
2023/05/06 00:56:16;;;;;;;11.88;8.38;;;;;;;;;;5053036;28;20025;-68
2023/05/06 00:58:44;;;;;;;12.82;8.18;;;;;;;;;;5054307;28;20049;-68
2023/05/06 01:01:10;;;;;;;13.18;8.85;;;;;;;;;;5052674;28;20024;-68
2023/05/06 01:03:36;;;;;;;14.95;10.05;;;;;;;;;;5054070;28;20033;-68
2023/05/06 01:06:40;;;;;;;11.82;9.23;;;;;;;;;;5054035;28;20029;-68
2023/05/06 01:09:36;;;;;;;13.40;8.88;;;;;;;;;;5021807;28;20502;-68
2023/05/06 01:12:08;;;;;;;15.07;9.30;;;;;;;;;;5060511;28;20406;-68
2023/05/06 01:14:44;;;;;;;14.80;9.45;;;;;;;;;;5052588;28;20035;-68
2023/05/06 01:17:11;;;;;;;11.60;8.80;;;;;;;;;;5043395;28;20025;-67
2023/05/06 01:19:40;;;;;;;16.63;10.05;;;;;;;;;;5039976;28;20029;-68
2023/05/06 01:22:10;;;;;;;12.75;9.00;;;;;;;;;;5035223;28;20542;-68
2023/05/06 01:24:41;;;;;;;14.55;8.93;;;;;;;;;;5048612;28;20152;-68
2023/05/06 01:27:08;;;;;;;13.80;9.18;;;;;;;;;;5045391;28;20116;-67
2023/05/06 01:29:37;;;;;;;19.63;9.30;;;;;;;;;;5035874;28;20039;-68
2023/05/06 01:32:39;;;;;;;15.30;9.32;;;;;;;;;;5045199;28;20478;-68
2023/05/06 01:35:15;;;;;;;13.82;8.95;;;;;;;;;;5017899;28;20041;-68
2023/05/06 01:38:04;;;;;;;14.32;9.07;;;;;;;;;;5048093;28;20041;-68
2023/05/06 01:40:32;;;;;;;12.98;8.30;;;;;;;;;;5038856;28;20036;-68
2023/05/06 01:43:01;;;;;;;13.52;8.48;;;;;;;;;;5046788;28;20861;-68
2023/05/06 01:45:30;;;;;;;14.73;8.57;;;;;;;;;;5044171;28;20136;-68
2023/05/06 01:47:57;;;;;;;13.30;8.70;;;;;;;;;;5049369;28;20091;-68
2023/05/06 01:50:23;;;;;;;13.57;9.20;;;;;;;;;;5045779;28;20033;-68
2023/05/06 01:52:59;;;;;;;14.80;9.02;;;;;;;;;;5046119;28;20047;-69
2023/05/06 01:55:25;;;;;;;13.10;8.57;;;;;;;;;;5045707;28;20075;-68
2023/05/06 01:57:52;;;;;;;12.55;8.60;;;;;;;;;;5046336;28;20417;-67
2023/05/06 02:00:18;;;;;;;14.70;9.52;;;;;;;;;;5033533;28;20025;-68
2023/05/06 02:02:44;;;;;;;13.75;9.73;;;;;;;;;;5052125;28;20100;-69
2023/05/06 02:05:09;;;;;;;15.43;9.93;;;;;;;;;;5051781;28;20037;-68
2023/05/06 02:07:40;;;;;;;14.40;9.60;;;;;;;;;;5047668;28;20071;-69
2023/05/06 02:10:07;;;;;;;16.58;9.50;;;;;;;;;;5050090;28;20053;-67
2023/05/06 02:12:35;;;;;;;15.02;11.68;;;;;;;;;;5051704;28;20036;-67
2023/05/06 02:15:01;;;;;;;16.27;10.35;;;;;;;;;;5052921;28;20107;-68
2023/05/06 02:17:26;;;;;;;13.45;9.45;;;;;;;;;;5050935;28;20033;-69
2023/05/06 02:19:52;;;;;;;13.93;10.43;;;;;;;;;;5051675;28;20509;-68
2023/05/06 02:22:18;;;;;;;15.85;11.10;;;;;;;;;;5059718;28;20032;-68
2023/05/06 02:24:44;;;;;;;15.48;11.13;;;;;;;;;;5044510;28;20112;-67
2023/05/06 02:27:09;;;;;;;17.42;11.48;;;;;;;;;;5049324;28;20025;-67
2023/05/06 02:29:35;;;;;;;19.13;12.68;;;;;;;;;;5051370;28;20199;-67
2023/05/06 02:32:01;;;;;;;13.40;10.23;;;;;;;;;;5052498;28;20028;-69
2023/05/06 02:34:27;;;;;;;20.23;10.88;;;;;;;;;;5051371;28;20032;-69
2023/05/06 02:36:53;;;;;;;15.27;10.30;;;;;;;;;;5050765;28;20079;-69
2023/05/06 02:39:18;;;;;;;13.40;9.60;;;;;;;;;;5049390;28;20135;-68
2023/05/06 02:41:44;;;;;;;19.90;10.55;;;;;;;;;;5061722;28;20044;-68
2023/05/06 02:44:10;;;;;;;18.73;11.80;;;;;;;;;;5050717;28;20037;-67
2023/05/06 02:46:36;;;;;;;18.55;11.15;;;;;;;;;;5050942;28;20017;-67
2023/05/06 02:49:02;;;;;;;20.45;12.43;;;;;;;;;;5050383;28;20033;-68
2023/05/06 02:51:28;;;;;;;19.25;11.25;;;;;;;;;;5050789;28;20028;-69
2023/05/06 02:53:54;;;;;;;17.80;11.75;;;;;;;;;;5052167;28;20039;-69
2023/05/06 02:56:20;;;;;;;17.60;12.48;;;;;;;;;;5049950;28;20622;-69
2023/05/06 02:58:46;;;;;;;18.10;12.07;;;;;;;;;;5050198;28;20043;-68
2023/05/06 03:01:11;;;;;;;19.63;12.57;;;;;;;;;;5051246;28;20032;-67
2023/05/06 03:03:37;;;;;;;23.77;13.30;;;;;;;;;;5032659;28;20033;-68
2023/05/06 03:06:03;;;;;;;20.20;12.05;;;;;;;;;;5051358;28;20386;-68
2023/05/06 03:08:29;;;;;;;22.60;12.50;;;;;;;;;;5045668;28;20044;-68
2023/05/06 03:10:55;;;;;;;21.27;14.43;;;;;;;;;;5047279;28;20033;-68
2023/05/06 03:13:21;;;;;;;25.33;12.88;;;;;;;;;;5052956;28;20525;-68
2023/05/06 03:15:52;;;;;;;25.70;13.80;;;;;;;;;;5033961;28;20056;-68
2023/05/06 03:18:19;;;;;;;27.75;13.80;;;;;;;;;;5042629;28;20067;-68
2023/05/06 03:20:47;;;;;;;32.33;15.20;;;;;;;;;;5042444;28;20487;-68
2023/05/06 03:23:13;;;;;;;26.42;14.48;;;;;;;;;;5050561;28;20064;-69
2023/05/06 03:25:39;;;;;;;27.83;14.30;;;;;;;;;;5047117;28;20029;-68
2023/05/06 03:28:06;;;;;;;24.67;13.95;;;;;;;;;;5047980;28;20037;-68
2023/05/06 03:30:33;;;;;;;26.20;13.43;;;;;;;;;;5032973;28;20112;-68
2023/05/06 03:33:02;;;;;;;18.27;12.00;;;;;;;;;;5042084;28;20063;-68
2023/05/06 03:35:31;;;;;;;24.08;12.95;;;;;;;;;;5050311;28;20042;-68
2023/05/06 03:37:58;;;;;;;19.90;12.27;;;;;;;;;;5050305;28;20033;-69
2023/05/06 03:40:28;;;;;;;21.45;12.25;;;;;;;;;;5050411;28;20025;-69
2023/05/06 03:42:55;;;;;;;21.52;12.65;;;;;;;;;;5050443;28;20059;-68
2023/05/06 03:45:22;;;;;;;27.33;12.55;;;;;;;;;;5050599;28;20506;-68
2023/05/06 03:47:47;;;;;;;20.55;13.20;;;;;;;;;;5050744;28;20043;-68
2023/05/06 03:50:13;;;;;;;21.30;12.07;;;;;;;;;;5050679;28;20036;-71
2023/05/06 03:52:40;;;;;;;30.45;13.93;;;;;;;;;;5043392;28;20043;-68
2023/05/06 03:55:06;;;;;;;34.53;14.63;;;;;;;;;;5051511;28;20025;-69
2023/05/06 03:57:32;;;;;;;24.75;12.10;;;;;;;;;;5046742;28;20047;-68
2023/05/06 03:59:58;;;;;;;22.55;11.23;;;;;;;;;;5047524;28;20403;-67
2023/05/06 04:02:28;;;;;;;17.20;10.82;;;;;;;;;;5043566;28;20029;-68
2023/05/06 04:04:54;;;;;;;18.35;10.88;;;;;;;;;;5049992;28;20017;-68
2023/05/06 04:07:20;;;;;;;15.82;10.80;;;;;;;;;;5051654;28;20528;-68
2023/05/06 04:09:45;;;;;;;13.45;10.27;;;;;;;;;;5054989;28;20503;-69
2023/05/06 04:12:11;;;;;;;14.88;9.40;;;;;;;;;;5055237;28;20086;-69
2023/05/06 04:14:38;;;;;;;15.82;9.18;;;;;;;;;;5054042;28;20390;-69
2023/05/06 04:17:04;;;;;;;16.88;8.50;;;;;;;;;;5048021;28;20387;-67
2023/05/06 04:19:31;;;;;;;14.82;9.38;;;;;;;;;;5054868;28;20036;-68
2023/05/06 04:21:57;;;;;;;15.88;9.57;;;;;;;;;;5045926;28;20029;-69
2023/05/06 04:24:23;;;;;;;15.68;8.90;;;;;;;;;;5051817;28;20394;-69
2023/05/06 04:26:49;;;;;;;14.30;9.75;;;;;;;;;;5044661;28;20036;-68
2023/05/06 04:29:15;;;;;;;14.68;9.15;;;;;;;;;;5054526;28;20079;-68
2023/05/06 04:31:56;;;;;;;16.75;9.55;;;;;;;;;;5052924;28;20036;-69
2023/05/06 04:34:23;;;;;;;20.52;11.25;;;;;;;;;;5052942;28;20495;-68
2023/05/06 04:36:50;;;;;;;16.67;10.45;;;;;;;;;;5052327;28;20131;-68
2023/05/06 04:39:30;;;;;;;19.85;10.43;;;;;;;;;;5048331;28;20029;-69
2023/05/06 04:41:57;;;;;;;21.85;11.30;;;;;;;;;;5050414;28;20116;-68
2023/05/06 04:44:32;;;;;;;22.40;12.25;;;;;;;;;;5044880;28;20046;-69
2023/05/06 04:46:59;;;;;;;33.55;12.68;;;;;;;;;;5051950;28;20052;-68
2023/05/06 04:49:25;;;;;;;19.67;10.73;;;;;;;;;;5051982;28;20051;-69
2023/05/06 04:51:51;;;;;;;17.42;10.70;;;;;;;;;;5052140;28;20063;-68
2023/05/06 04:54:17;;;;;;;14.85;9.95;;;;;;;;;;5052062;28;20021;-68
2023/05/06 04:56:43;;;;;;;15.45;9.10;;;;;;;;;;5053296;28;20406;-69
2023/05/06 04:59:11;;;;;;;16.20;9.55;;;;;;;;;;5050684;28;20025;-68
2023/05/06 05:01:38;;;;;;;13.30;9.70;;;;;;;;;;5052057;28;20486;-69
2023/05/06 05:04:04;;;;;;;15.63;8.43;;;;;;;;;;5051968;28;20025;-68
2023/05/06 05:06:30;;;;;;;10.65;7.88;;;;;;;;;;5052019;28;20039;-69
2023/05/06 05:08:57;;;;;;;14.48;9.02;;;;;;;;;;5051888;28;20025;-68
2023/05/06 05:11:23;;;;;;;12.68;8.48;;;;;;;;;;5051873;28;20028;-68
2023/05/06 05:13:50;;;;;;;19.02;8.27;;;;;;;;;;5051913;28;20029;-67
2023/05/06 05:16:16;;;;;;;14.73;9.00;;;;;;;;;;5052934;28;20060;-69
2023/05/06 05:18:43;;;;;;;20.77;9.02;;;;;;;;;;5049326;28;20085;-68
2023/05/06 05:21:16;;;;;;;14.38;7.53;;;;;;;;;;5051847;28;20514;-69
2023/05/06 05:23:41;;;;;;;11.35;6.43;;;;;;;;;;5051809;28;20116;-70
2023/05/06 05:26:07;;;;;;;9.55;7.05;;;;;;;;;;5046931;28;20505;-70
2023/05/06 05:28:33;;;;;;;16.23;8.20;;;;;;;;;;5051986;28;20045;-69
2023/05/06 05:31:03;;;;;;;16.20;7.97;;;;;;;;;;5042966;28;20364;-69
2023/05/06 05:33:30;;;;;;;16.70;8.35;;;;;;;;;;5031580;28;20109;-71
2023/05/06 05:35:57;;;;;;;19.90;8.15;;;;;;;;;;5053379;28;20115;-68
2023/05/06 05:38:24;;;;;;;11.57;8.48;;;;;;;;;;5038825;28;20033;-70
2023/05/06 05:40:49;;;;;;;18.80;9.30;;;;;;;;;;5036624;28;20094;-68
2023/05/06 05:43:15;;;;;;;23.33;9.65;;;;;;;;;;5050528;28;20033;-69
2023/05/06 05:45:42;;;;;;;15.18;8.95;;;;;;;;;;5050127;28;20039;-69
2023/05/06 05:48:09;;;;;;;15.25;8.77;;;;;;;;;;5049753;28;20412;-68
2023/05/06 05:50:35;;;;;;;22.08;8.75;;;;;;;;;;5049678;28;20022;-69
2023/05/06 05:53:01;;;;;;;19.52;8.32;;;;;;;;;;5046138;28;20020;-69
2023/05/06 05:55:28;;;;;;;16.40;8.65;;;;;;;;;;5042984;28;20013;-69
2023/05/06 05:57:54;;;;;;;17.88;8.43;;;;;;;;;;5046682;28;20555;-68
2023/05/06 06:00:21;;;;;;;15.00;7.45;;;;;;;;;;5045212;28;20458;-69
2023/05/06 06:02:51;;;;;;;15.35;8.35;;;;;;;;;;5043943;28;20028;-69
2023/05/06 06:05:19;;;;;;;12.68;8.10;;;;;;;;;;5052610;28;20119;-70
2023/05/06 06:07:45;;;;;;;11.05;7.53;;;;;;;;;;5051903;28;20029;-68
2023/05/06 06:10:14;;;;;;;13.38;7.35;;;;;;;;;;5051650;28;20211;-67
2023/05/06 06:12:42;;;;;;;15.20;8.18;;;;;;;;;;5051498;28;20029;-68
2023/05/06 06:15:10;;;;;;;9.32;7.35;;;;;;;;;;5051972;28;20025;-67
2023/05/06 06:17:36;;;;;;;13.25;7.22;;;;;;;;;;5051291;28;20115;-68
2023/05/06 06:20:05;;;;;;;10.18;7.32;;;;;;;;;;5051458;28;20055;-69
2023/05/06 06:22:30;;;;;;;13.70;7.68;;;;;;;;;;5051663;28;20402;-68
2023/05/06 06:24:56;;;;;;;17.60;8.82;;;;;;;;;;5034881;28;20063;-68
2023/05/06 06:27:22;;;;;;;13.40;8.35;;;;;;;;;;5050997;28;20102;-69
2023/05/06 06:29:48;;;;;;;12.50;7.85;;;;;;;;;;5046971;28;20033;-69
2023/05/06 06:32:15;;;;;;;18.67;8.35;;;;;;;;;;5062373;28;20056;-68
2023/05/06 06:34:40;;;;;;;10.95;7.43;;;;;;;;;;5039768;28;20482;-69
2023/05/06 06:37:09;;;;;;;13.25;6.35;;;;;;;;;;5050664;28;20095;-69
2023/05/06 06:39:35;;;;;;;15.43;6.90;;;;;;;;;;5046130;28;20540;-67
2023/05/06 06:42:03;;;;;;;11.68;6.60;;;;;;;;;;5049010;28;20060;-69
2023/05/06 06:44:35;;;;;;;13.68;7.68;;;;;;;;;;5047034;28;20037;-69
2023/05/06 06:47:01;;;;;;;13.07;7.13;;;;;;;;;;5031960;28;20033;-68
2023/05/06 06:49:27;;;;;;;13.63;7.80;;;;;;;;;;5031096;28;20483;-69
2023/05/06 06:51:55;;;;;;;12.30;7.55;;;;;;;;;;5033579;28;20136;-69
2023/05/06 06:54:21;;;;;;;12.10;8.00;;;;;;;;;;5041092;28;20025;-67
2023/05/06 06:56:47;;;;;;;13.05;7.57;;;;;;;;;;5045806;28;20060;-70
2023/05/06 06:59:13;;;;;;;10.32;6.53;;;;;;;;;;5044619;28;20475;-68
2023/05/06 07:01:40;;;;;;;11.43;6.68;;;;;;;;;;5047515;28;20040;-69
2023/05/06 07:04:06;;;;;;;10.70;7.03;;;;;;;;;;5041101;28;20034;-70
2023/05/06 07:06:31;;;;;;;8.10;5.82;;;;;;;;;;5051142;28;20451;-68
2023/05/06 07:08:57;;;;;;;7.95;4.90;;;;;;;;;;5050045;28;20028;-68
2023/05/06 07:11:23;;;;;;;9.20;4.97;;;;;;;;;;5050404;28;20139;-68
2023/05/06 07:13:48;;;;;;;11.25;5.70;;;;;;;;;;5050900;28;20052;-67
2023/05/06 07:16:14;;;;;;;9.95;4.90;;;;;;;;;;5049935;28;20032;-69
2023/05/06 07:18:40;;;;;;;9.52;4.88;;;;;;;;;;5048212;28;20105;-69
2023/05/06 07:21:06;;;;;;;9.38;4.68;;;;;;;;;;5050080;28;20029;-70
2023/05/06 07:23:31;;;;;;;10.27;5.75;;;;;;;;;;5050142;28;20241;-70
2023/05/06 07:25:58;;;;;;;9.18;5.10;;;;;;;;;;5050451;28;20048;-69
2023/05/06 07:28:24;;;;;;;9.45;5.60;;;;;;;;;;5048715;28;20028;-70
2023/05/06 07:30:51;;;;;;;10.00;5.18;;;;;;;;;;5050104;28;20040;-69
2023/05/06 07:33:16;;;;;;;7.05;4.88;;;;;;;;;;5049280;28;20024;-69
2023/05/06 07:35:42;;;;;;;6.22;4.60;;;;;;;;;;5049883;28;20504;-69
2023/05/06 07:38:08;;;;;;;9.82;5.40;;;;;;;;;;5046505;28;20104;-69
2023/05/06 07:40:34;;;;;;;7.10;4.63;;;;;;;;;;5047891;28;20044;-70
2023/05/06 07:42:59;;;;;;;9.32;5.22;;;;;;;;;;5050243;28;20140;-69
2023/05/06 07:45:25;;;;;;;15.25;5.68;;;;;;;;;;5057136;28;20214;-69
2023/05/06 07:47:51;;;;;;;9.35;5.22;;;;;;;;;;5050221;28;20047;-70
2023/05/06 07:50:16;;;;;;;10.50;4.57;;;;;;;;;;5050876;28;20115;-69
2023/05/06 07:52:42;;;;;;;8.40;3.85;;;;;;;;;;5050607;28;20419;-68
2023/05/06 07:55:08;;;;;;;7.72;4.60;;;;;;;;;;5050950;28;20368;-68
2023/05/06 07:57:34;;;;;;;7.13;4.03;;;;;;;;;;5050866;28;20017;-68
2023/05/06 08:00:00;;;;;;;5.15;3.00;;;;;;;;;;5050303;28;20044;-68
2023/05/06 08:02:26;;;;;;;4.53;2.78;;;;;;;;;;5050983;28;20029;-68
2023/05/06 08:04:52;;;;;;;8.05;3.00;;;;;;;;;;5050867;28;20446;-68
2023/05/06 08:07:18;;;;;;;5.28;2.65;;;;;;;;;;5049059;28;20021;-69
2023/05/06 08:09:44;;;;;;;5.82;3.10;;;;;;;;;;5050916;28;20090;-69
2023/05/06 08:12:09;;;;;;;9.88;3.55;;;;;;;;;;5050638;28;20036;-69
2023/05/06 08:14:35;;;;;;;5.88;3.10;;;;;;;;;;5050778;28;20359;-66
2023/05/06 08:17:01;;;;;;;6.38;3.03;;;;;;;;;;5050805;28;20112;-68
2023/05/06 08:19:27;;;;;;;5.30;3.03;;;;;;;;;;5047137;28;20376;-67
2023/05/06 08:21:53;;;;;;;6.07;2.90;;;;;;;;;;5047721;28;20453;-68
2023/05/06 08:24:19;;;;;;;3.80;2.83;;;;;;;;;;5049900;28;20036;-71
2023/05/06 08:26:45;;;;;;;4.32;2.80;;;;;;;;;;5050479;28;20029;-69
2023/05/06 08:29:11;;;;;;;5.03;3.00;;;;;;;;;;5050358;28;20044;-71
2023/05/06 08:31:36;;;;;;;5.80;3.30;;;;;;;;;;5050543;28;20047;-68
2023/05/06 08:34:02;;;;;;;6.25;3.33;;;;;;;;;;5050619;28;20116;-68
2023/05/06 08:36:28;;;;;;;5.03;3.22;;;;;;;;;;5049741;28;20025;-68
2023/05/06 08:38:53;;;;;;;6.35;3.67;;;;;;;;;;5049602;28;20033;-69
2023/05/06 08:41:20;;;;;;;7.93;3.25;;;;;;;;;;5050064;28;20028;-67
2023/05/06 08:43:47;;;;;;;4.57;3.22;;;;;;;;;;5050014;28;20040;-69
2023/05/06 08:46:14;;;;;;;4.22;2.70;;;;;;;;;;5050108;28;20093;-69
2023/05/06 08:48:40;;;;;;;6.07;3.42;;;;;;;;;;5050026;28;20123;-68
2023/05/06 08:51:06;;;;;;;7.28;4.15;;;;;;;;;;5049876;28;20135;-69
2023/05/06 08:53:33;;;;;;;9.63;3.55;;;;;;;;;;5050714;28;20443;-67
2023/05/06 08:56:05;;;;;;;4.97;3.67;;;;;;;;;;5054127;28;20021;-68
2023/05/06 08:58:33;;;;;;;6.57;3.58;;;;;;;;;;5052262;28;20033;-69
2023/05/06 09:01:01;;;;;;;5.65;3.53;;;;;;;;;;5052874;28;20389;-67
2023/05/06 09:03:27;;;;;;;5.00;3.95;;;;;;;;;;5053107;28;20072;-69
2023/05/06 09:05:53;;;;;;;5.10;3.58;;;;;;;;;;5053320;28;20028;-68
2023/05/06 09:08:19;;;;;;;4.20;3.40;;;;;;;;;;5052751;28;20063;-68
2023/05/06 09:10:46;;;;;;;6.22;4.10;;;;;;;;;;5052375;28;20063;-67
2023/05/06 09:13:13;;;;;;;5.90;3.25;;;;;;;;;;5051982;28;20036;-68
2023/05/06 09:15:40;;;;;;;4.55;3.50;;;;;;;;;;5053281;28;20069;-68
2023/05/06 09:18:06;;;;;;;5.80;3.33;;;;;;;;;;5052140;28;20037;-67
2023/05/06 09:20:39;;;;;;;5.60;3.80;;;;;;;;;;5054709;28;20485;-68
2023/05/06 09:23:07;;;;;;;7.15;3.63;;;;;;;;;;5054091;28;20064;-67
2023/05/06 09:25:32;;;;;;;5.47;3.90;;;;;;;;;;5053778;28;20036;-67
2023/05/06 09:28:06;;;;;;;7.50;3.88;;;;;;;;;;5053955;28;20103;-69
2023/05/06 09:30:32;;;;;;;6.90;3.75;;;;;;;;;;5054051;28;20037;-68
2023/05/06 09:33:02;;;;;;;4.80;3.60;;;;;;;;;;5053644;28;20037;-69
2023/05/06 09:35:35;;;;;;;6.63;3.60;;;;;;;;;;5053788;28;20483;-68
2023/05/06 09:38:00;;;;;;;5.60;3.75;;;;;;;;;;5052175;28;20493;-69
2023/05/06 09:40:28;;;;;;;7.93;4.18;;;;;;;;;;5053288;28;20029;-67
2023/05/06 09:42:54;;;;;;;6.00;3.97;;;;;;;;;;5053619;28;20029;-69
2023/05/06 09:45:20;;;;;;;7.93;4.03;;;;;;;;;;5053440;28;20021;-69
2023/05/06 09:47:48;;;;;;;5.50;3.67;;;;;;;;;;5053239;28;20082;-68
2023/05/06 09:50:15;;;;;;;5.60;3.53;;;;;;;;;;5053053;28;20040;-67
2023/05/06 09:52:44;;;;;;;5.22;3.65;;;;;;;;;;5053047;28;20033;-68
2023/05/06 09:55:10;;;;;;;7.15;3.90;;;;;;;;;;5053125;28;20486;-68
2023/05/06 09:57:36;;;;;;;6.15;3.58;;;;;;;;;;5052870;28;20083;-68
2023/05/06 10:00:06;;;;;;;6.55;3.33;;;;;;;;;;5052858;28;20484;-68
2023/05/06 10:02:42;;;;;;;4.60;3.00;;;;;;;;;;5053168;28;20490;-69
2023/05/06 10:05:09;;;;;;;3.65;2.78;;;;;;;;;;5052844;28;20037;-68
2023/05/06 10:07:35;;;;;;;4.25;2.95;;;;;;;;;;5052888;28;20427;-68
2023/05/06 10:10:21;;;;;;;7.07;4.10;;;;;;;;;;5052641;28;20041;-70
2023/05/06 10:12:47;;;;;;;4.03;2.92;;;;;;;;;;5054362;28;20032;-68
2023/05/06 10:15:13;;;;;;;5.20;3.70;;;;;;;;;;5053052;28;20436;-68
2023/05/06 10:17:41;;;;;;;6.03;3.53;;;;;;;;;;5052837;28;20093;-69
2023/05/06 10:20:10;;;;;;;4.20;2.78;;;;;;;;;;5053425;28;20029;-68
2023/05/06 10:22:39;;;;;;;6.07;3.17;;;;;;;;;;5052803;28;20041;-68
2023/05/06 10:25:15;;;;;;;5.82;3.33;;;;;;;;;;5052600;28;20029;-68
2023/05/06 10:27:43;;;;;;;4.10;2.40;;;;;;;;;;5052484;28;20055;-69
2023/05/06 10:30:10;;;;;;;4.65;2.38;;;;;;;;;;5052461;28;20036;-68
2023/05/06 10:32:41;;;;;;;4.57;2.50;;;;;;;;;;5052278;28;20036;-68
2023/05/06 10:35:14;;;;;;;6.00;3.08;;;;;;;;;;5052255;28;20025;-68
2023/05/06 10:37:41;;;;;;;4.72;2.25;;;;;;;;;;5052039;28;20037;-67
2023/05/06 10:40:08;;;;;;;4.70;2.50;;;;;;;;;;5051920;28;20490;-68
2023/05/06 10:42:34;;;;;;;5.45;3.35;;;;;;;;;;5052469;28;20494;-70
2023/05/06 10:45:04;;;;;;;4.88;2.10;;;;;;;;;;5051976;28;20021;-68
2023/05/06 10:47:51;;;;;;;6.93;2.50;;;;;;;;;;5050742;28;20522;-68
2023/05/06 10:50:25;;;;;;;5.05;3.15;;;;;;;;;;5051546;28;20037;-68
2023/05/06 10:52:54;;;;;;;5.03;2.25;;;;;;;;;;5051960;28;20097;-67
2023/05/06 10:55:33;;;;;;;16.83;9.98;;;;;;;;;;5051801;28;20079;-68
2023/05/06 10:58:10;;;;;;;3.42;1.90;;;;;;;;;;5067154;28;20037;-68
2023/05/06 11:00:36;;;;;;;3.92;3.22;;;;;;;;;;5052002;28;20483;-67
2023/05/06 11:03:05;;;;;;;4.60;1.98;;;;;;;;;;5051964;28;20078;-68
2023/05/06 11:05:34;;;;;;;6.50;2.40;;;;;;;;;;5051574;28;20099;-67
2023/05/06 11:08:08;;;;;;;10.18;6.25;;;;;;;;;;5051481;28;20033;-68
2023/05/06 11:10:35;;;;;;;3.90;1.90;;;;;;;;;;5051284;28;20390;-68
2023/05/06 11:13:22;;;;;;;3.30;2.30;;;;;;;;;;5051685;28;20124;-68
2023/05/06 11:15:52;;;;;;;3.38;2.00;;;;;;;;;;5051369;28;20029;-68
2023/05/06 11:18:23;;;;;;;3.58;1.90;;;;;;;;;;5051134;28;20110;-69
2023/05/06 11:20:58;;;;;;;2.72;2.00;;;;;;;;;;5051573;28;20037;-69
2023/05/06 11:23:50;;;;;;;4.97;2.03;;;;;;;;;;5051681;28;20041;-69
2023/05/06 11:26:17;;;;;;;6.63;2.00;;;;;;;;;;5051506;28;20124;-69
2023/05/06 11:28:46;;;;;;;3.58;2.15;;;;;;;;;;5051352;28;20116;-69
2023/05/06 11:31:13;;;;;;;7.85;4.53;;;;;;;;;;5050137;28;20039;-70
2023/05/06 11:33:50;;;;;;;2.83;2.03;;;;;;;;;;5051439;28;20029;-70
2023/05/06 11:36:17;;;;;;;7.85;3.00;;;;;;;;;;5051740;28;20505;-69
2023/05/06 11:38:44;;;;;;;3.13;1.90;;;;;;;;;;5051540;28;20124;-69
2023/05/06 11:41:10;;;;;;;5.55;2.00;;;;;;;;;;5051853;28;20045;-70
2023/05/06 11:43:36;;;;;;;3.80;2.00;;;;;;;;;;5051404;28;20024;-70
2023/05/06 11:46:02;;;;;;;4.85;2.00;;;;;;;;;;5051440;28;20086;-70
2023/05/06 11:48:27;;;;;;;9.93;6.78;;;;;;;;;;5051354;28;20108;-68
2023/05/06 11:50:54;;;;;;;35.53;23.00;;;;;;;;;;5050929;28;20040;-71
2023/05/06 11:53:22;;;;;;;22.55;15.15;;;;;;;;;;5051329;28;20036;-69
2023/05/06 11:55:51;;;;;;;3.85;2.00;;;;;;;;;;5051780;28;20494;-69
2023/05/06 11:58:19;;;;;;;4.50;2.15;;;;;;;;;;5051055;28;20032;-70
2023/05/06 12:01:05;;;;;;;2.97;1.60;;;;;;;;;;5051187;28;20036;-68
2023/05/06 12:03:32;;;;;;;3.50;2.00;;;;;;;;;;5051001;28;20072;-70
2023/05/06 12:05:58;;;;;;;5.72;2.10;;;;;;;;;;5051212;28;20052;-71
2023/05/06 12:08:27;;;;;;;3.88;1.92;;;;;;;;;;5051015;28;20082;-70
2023/05/06 12:11:19;;;;;;;3.95;2.30;;;;;;;;;;5049915;28;20216;-70
2023/05/06 12:13:45;;;;;;;17.00;9.33;;;;;;;;;;5049280;28;20045;-70
2023/05/06 12:16:12;;;;;;;5.07;3.13;;;;;;;;;;5051160;28;20502;-70
2023/05/06 12:18:38;;;;;;;3.67;2.45;;;;;;;;;;5051125;28;20045;-68
2023/05/06 12:21:06;;;;;;;13.05;8.93;;;;;;;;;;5049984;28;20036;-70
2023/05/06 12:23:32;;;;;;;2.45;1.80;;;;;;;;;;5050974;28;20040;-68
2023/05/06 12:26:05;;;;;;;2.63;1.90;;;;;;;;;;5051039;28;20071;-70
2023/05/06 12:28:32;;;;;;;5.50;2.35;;;;;;;;;;5051677;28;20446;-71
2023/05/06 12:31:00;;;;;;;4.72;1.88;;;;;;;;;;5055031;28;20031;-71
2023/05/06 12:33:26;;;;;;;3.55;2.03;;;;;;;;;;5055293;28;20090;-69
2023/05/06 12:35:53;;;;;;;3.25;1.88;;;;;;;;;;5055430;28;20425;-69
2023/05/06 12:38:19;;;;;;;3.97;2.80;;;;;;;;;;5054361;28;20047;-70
2023/05/06 12:40:53;;;;;;;5.97;2.10;;;;;;;;;;5054883;28;20017;-70
2023/05/06 12:43:28;;;;;;;4.15;2.28;;;;;;;;;;5054492;28;20514;-70
2023/05/06 12:46:07;;;;;;;5.07;2.20;;;;;;;;;;5054603;28;20057;-70
2023/05/06 12:48:33;;;;;;;3.90;2.22;;;;;;;;;;5054358;28;20074;-70
2023/05/06 12:50:59;;;;;;;4.38;2.20;;;;;;;;;;5054502;28;20024;-70
2023/05/06 12:53:33;;;;;;;5.18;2.30;;;;;;;;;;5052972;28;20076;-70
2023/05/06 12:55:58;;;;;;;5.43;2.67;;;;;;;;;;5054500;28;20052;-70
2023/05/06 12:58:24;;;;;;;5.00;1.83;;;;;;;;;;5054152;28;20032;-70
2023/05/06 13:00:50;;;;;;;3.42;2.20;;;;;;;;;;5054394;28;20091;-70
2023/05/06 13:03:17;;;;;;;3.08;2.00;;;;;;;;;;5053088;28;20021;-68
2023/05/06 13:05:45;;;;;;;4.65;1.90;;;;;;;;;;5051324;28;20044;-69
2023/05/06 13:08:10;;;;;;;3.80;2.60;;;;;;;;;;5052087;28;20037;-71
2023/05/06 13:10:36;;;;;;;3.55;2.78;;;;;;;;;;5049453;28;20045;-70
2023/05/06 13:13:02;;;;;;;4.45;2.00;;;;;;;;;;5047994;28;20040;-70
2023/05/06 13:15:28;;;;;;;3.95;2.00;;;;;;;;;;5048483;28;20056;-70
2023/05/06 13:17:55;;;;;;;4.03;2.00;;;;;;;;;;5044871;28;20045;-70
2023/05/06 13:20:21;;;;;;;3.58;1.90;;;;;;;;;;5048171;28;20033;-69
2023/05/06 13:22:47;;;;;;;3.60;1.98;;;;;;;;;;5048325;28;20025;-70
2023/05/06 13:25:13;;;;;;;4.35;1.90;;;;;;;;;;5049012;28;20368;-70
2023/05/06 13:27:38;;;;;;;3.50;2.03;;;;;;;;;;5048337;28;20031;-70
2023/05/06 13:30:05;;;;;;;4.63;2.20;;;;;;;;;;5069342;28;20048;-71
2023/05/06 13:32:31;;;;;;;3.92;2.10;;;;;;;;;;5048933;28;20140;-70
2023/05/06 13:34:57;;;;;;;3.25;2.00;;;;;;;;;;5047432;28;20102;-71
2023/05/06 13:37:22;;;;;;;3.67;2.30;;;;;;;;;;5046214;28;20056;-71
2023/05/06 13:39:48;;;;;;;4.60;2.28;;;;;;;;;;5049014;28;20390;-69
2023/05/06 13:42:14;;;;;;;4.47;2.00;;;;;;;;;;5049961;28;20025;-69
2023/05/06 13:44:40;;;;;;;6.40;1.95;;;;;;;;;;5051302;28;20037;-69
2023/05/06 13:47:06;;;;;;;2.88;2.25;;;;;;;;;;5067427;28;20056;-70
2023/05/06 13:49:31;;;;;;;3.58;2.30;;;;;;;;;;5051491;28;20387;-69
2023/05/06 13:51:57;;;;;;;3.28;1.83;;;;;;;;;;5051433;28;20021;-70
2023/05/06 13:54:23;;;;;;;3.80;2.00;;;;;;;;;;5051738;28;20491;-70
2023/05/06 13:56:49;;;;;;;2.50;2.05;;;;;;;;;;5052425;28;20038;-70
2023/05/06 13:59:15;;;;;;;3.10;2.10;;;;;;;;;;5052733;28;20044;-71
2023/05/06 14:01:41;;;;;;;3.70;2.17;;;;;;;;;;5053069;28;20562;-72
2023/05/06 14:04:06;;;;;;;4.40;2.20;;;;;;;;;;5052502;28;20462;-70
2023/05/06 14:06:32;;;;;;;4.45;2.03;;;;;;;;;;5052786;28;20060;-71
2023/05/06 14:08:58;;;;;;;3.25;2.22;;;;;;;;;;5052344;28;20020;-70
2023/05/06 14:11:24;;;;;;;5.30;2.38;;;;;;;;;;5051759;28;20052;-69
2023/05/06 14:13:49;;;;;;;6.32;1.90;;;;;;;;;;5052280;28;20473;-69
2023/05/06 14:16:15;;;;;;;4.50;2.03;;;;;;;;;;5053033;28;20028;-70
2023/05/06 14:18:41;;;;;;;2.88;1.83;;;;;;;;;;5051880;28;20029;-70
2023/05/06 14:21:07;;;;;;;4.90;2.42;;;;;;;;;;5051994;28;20029;-68
2023/05/06 14:23:33;;;;;;;3.85;2.20;;;;;;;;;;5052758;28;20398;-70
2023/05/06 14:25:59;;;;;;;4.15;2.20;;;;;;;;;;5052716;28;20029;-71
2023/05/06 14:28:25;;;;;;;4.22;2.10;;;;;;;;;;5052568;28;20032;-71
2023/05/06 14:30:52;;;;;;;3.67;1.95;;;;;;;;;;5053059;28;20435;-72
2023/05/06 14:33:19;;;;;;;4.05;2.20;;;;;;;;;;5052865;28;20048;-69
2023/05/06 14:35:47;;;;;;;3.10;2.15;;;;;;;;;;5052628;28;20115;-69